Time;durP1;ratioP1;P1;durP2;ratioP2;P2;SDS_P1;SDS_P2;PMS_P1;PMS_P2;Temp;Humidity;BMP_temperature;BMP_pressure;BME280_temperature;BME280_humidity;BME280_pressure;Samples;Min_cycle;Max_cycle;Signal;HPM_P1;HPM_P2
2023/10/13 00:01:04;;;;;;;21.20;4.25;;;;;;;;;;5111538;28;20020;-72
2023/10/13 00:03:31;;;;;;;18.55;3.67;;;;;;;;;;5111565;28;20024;-72
2023/10/13 00:06:03;;;;;;;19.80;3.95;;;;;;;;;;5111402;28;20046;-70
2023/10/13 00:08:29;;;;;;;14.35;3.55;;;;;;;;;;5111497;28;20080;-72
2023/10/13 00:11:03;;;;;;;21.52;3.95;;;;;;;;;;5111635;28;20024;-71
2023/10/13 00:13:34;;;;;;;17.40;3.30;;;;;;;;;;5112080;28;20016;-71
2023/10/13 00:16:00;;;;;;;17.75;3.53;;;;;;;;;;5111573;28;20512;-73
2023/10/13 00:18:27;;;;;;;22.13;4.15;;;;;;;;;;5111285;28;20020;-70
2023/10/13 00:20:56;;;;;;;24.98;5.15;;;;;;;;;;5111375;28;20028;-70
2023/10/13 00:23:22;;;;;;;21.23;4.50;;;;;;;;;;5111291;28;20110;-70
2023/10/13 00:25:59;;;;;;;25.33;5.75;;;;;;;;;;5111548;28;20023;-72
2023/10/13 00:28:35;;;;;;;24.42;5.50;;;;;;;;;;5111236;28;20081;-71
2023/10/13 00:31:10;;;;;;;23.42;5.95;;;;;;;;;;5111145;28;20031;-72
2023/10/13 00:33:37;;;;;;;30.52;6.25;;;;;;;;;;5111130;28;20084;-72
2023/10/13 00:36:04;;;;;;;27.17;6.22;;;;;;;;;;5111198;28;20016;-72
2023/10/13 00:38:31;;;;;;;21.95;6.38;;;;;;;;;;5110987;28;20024;-73
2023/10/13 00:41:05;;;;;;;29.17;7.72;;;;;;;;;;5111236;28;20169;-71
2023/10/13 00:43:34;;;;;;;32.35;7.70;;;;;;;;;;5111260;28;20077;-73
2023/10/13 00:48:33;;;;;;;29.35;7.75;;;;;;;;;;5111348;28;20059;-71
2023/10/13 00:51:06;;;;;;;32.85;7.38;;;;;;;;;;5110768;28;20400;-72
2023/10/13 00:53:44;;;;;;;29.20;7.60;;;;;;;;;;5111076;28;20016;-72
2023/10/13 00:56:18;;;;;;;25.27;7.47;;;;;;;;;;5112563;28;20024;-72
2023/10/13 00:58:46;;;;;;;31.25;7.65;;;;;;;;;;5114012;28;20050;-73
2023/10/13 01:01:18;;;;;;;27.98;7.85;;;;;;;;;;5115716;28;20019;-72
2023/10/13 01:03:59;;;;;;;29.90;9.45;;;;;;;;;;5102276;28;20032;-72
2023/10/13 01:06:25;;;;;;;36.13;9.13;;;;;;;;;;5092413;28;20048;-72
2023/10/13 01:08:57;;;;;;;31.20;8.75;;;;;;;;;;5090341;28;20107;-71
2023/10/13 01:11:24;;;;;;;33.90;9.32;;;;;;;;;;5090389;28;20038;-72
2023/10/13 01:13:53;;;;;;;35.70;9.48;;;;;;;;;;5090633;28;20094;-71
2023/10/13 01:16:23;;;;;;;34.65;9.65;;;;;;;;;;5090840;28;20016;-71
2023/10/13 01:18:49;;;;;;;38.70;10.45;;;;;;;;;;5093675;28;20073;-72
2023/10/13 01:21:27;;;;;;;40.22;9.98;;;;;;;;;;5093983;28;20070;-71
2023/10/13 01:23:53;;;;;;;42.42;11.30;;;;;;;;;;5094645;28;20035;-72
2023/10/13 01:26:24;;;;;;;39.63;11.52;;;;;;;;;;5094232;28;20024;-71
2023/10/13 01:28:50;;;;;;;39.95;12.02;;;;;;;;;;5092242;28;20028;-72
2023/10/13 01:31:37;;;;;;;51.10;12.57;;;;;;;;;;5094550;28;20376;-72
2023/10/13 01:34:03;;;;;;;42.88;11.55;;;;;;;;;;5076912;28;20028;-73
2023/10/13 01:36:35;;;;;;;34.88;11.75;;;;;;;;;;5094736;28;20029;-71
2023/10/13 01:39:01;;;;;;;49.40;13.35;;;;;;;;;;5094229;28;20368;-72
2023/10/13 01:41:29;;;;;;;39.70;12.30;;;;;;;;;;5093501;28;20123;-71
2023/10/13 01:43:57;;;;;;;44.90;12.65;;;;;;;;;;5093686;28;20111;-71
2023/10/13 01:46:23;;;;;;;55.63;13.07;;;;;;;;;;5093937;28;20399;-72
2023/10/13 01:48:49;;;;;;;51.25;12.75;;;;;;;;;;5094423;28;20530;-75
2023/10/13 01:51:15;;;;;;;42.63;13.02;;;;;;;;;;5095402;28;20028;-72
2023/10/13 01:53:41;;;;;;;41.10;13.05;;;;;;;;;;5093406;28;20031;-72
2023/10/13 01:56:11;;;;;;;47.58;14.63;;;;;;;;;;5093635;28;20016;-72
2023/10/13 01:58:46;;;;;;;45.72;14.73;;;;;;;;;;5093097;28;20020;-71
2023/10/13 02:01:13;;;;;;;44.08;14.57;;;;;;;;;;5093484;28;20499;-72
2023/10/13 02:03:46;;;;;;;44.20;15.02;;;;;;;;;;5093157;28;20503;-72
2023/10/13 02:06:17;;;;;;;57.25;15.65;;;;;;;;;;5093047;28;20024;-73
2023/10/13 02:08:44;;;;;;;46.65;15.60;;;;;;;;;;5093130;28;20024;-72
2023/10/13 02:11:10;;;;;;;47.40;14.88;;;;;;;;;;5093503;28;20028;-73
2023/10/13 02:13:48;;;;;;;46.05;16.08;;;;;;;;;;5093247;28;20094;-72
2023/10/13 02:16:18;;;;;;;57.28;16.90;;;;;;;;;;5093175;28;20024;-72
2023/10/13 02:18:44;;;;;;;55.92;16.70;;;;;;;;;;5092898;28;20051;-70
2023/10/13 02:21:14;;;;;;;48.28;15.95;;;;;;;;;;5092995;28;20043;-73
2023/10/13 02:23:59;;;;;;;54.22;17.73;;;;;;;;;;5093178;28;20036;-72
2023/10/13 02:26:32;;;;;;;55.55;18.75;;;;;;;;;;5092737;28;20032;-72
2023/10/13 02:29:07;;;;;;;43.78;17.10;;;;;;;;;;5093207;28;20103;-72
2023/10/13 02:31:37;;;;;;;57.65;18.73;;;;;;;;;;5091643;28;20044;-71
2023/10/13 02:34:13;;;;;;;56.42;18.08;;;;;;;;;;5093116;28;20028;-71
2023/10/13 02:36:49;;;;;;;56.80;18.02;;;;;;;;;;5094693;28;20016;-71
2023/10/13 02:39:25;;;;;;;52.08;18.05;;;;;;;;;;5097438;28;20023;-71
2023/10/13 02:41:51;;;;;;;62.30;19.55;;;;;;;;;;5093983;28;20505;-71
2023/10/13 02:44:27;;;;;;;55.35;17.63;;;;;;;;;;5094344;28;20028;-71
2023/10/13 02:46:56;;;;;;;63.08;20.55;;;;;;;;;;5097472;28;20023;-72
2023/10/13 02:49:25;;;;;;;74.70;27.23;;;;;;;;;;5094639;28;20020;-72
2023/10/13 02:51:52;;;;;;;54.35;19.98;;;;;;;;;;5092591;28;20032;-70
2023/10/13 02:54:19;;;;;;;57.35;20.45;;;;;;;;;;5092293;28;20016;-70
2023/10/13 02:56:59;;;;;;;62.22;20.48;;;;;;;;;;5092403;28;20091;-70
2023/10/13 02:59:34;;;;;;;56.78;19.45;;;;;;;;;;5091941;28;20506;-71
2023/10/13 03:05:13;;;;;;;62.67;21.08;;;;;;;;;;5009544;28;20033;-72
2023/10/13 03:07:42;;;;;;;;;;;;;;;;;;5076351;28;20040;-73
2023/10/13 03:10:14;;;;;;;53.50;20.15;;;;;;;;;;5096354;28;19918;-74
2023/10/13 03:12:41;;;;;;;63.30;21.00;;;;;;;;;;5099423;28;20053;-74
2023/10/13 03:17:37;;;;;;;53.13;20.75;;;;;;;;;;5097407;28;20051;-73
2023/10/13 03:20:06;;;;;;;54.40;20.02;;;;;;;;;;5096718;28;20038;-73
2023/10/13 03:22:33;;;;;;;55.03;20.77;;;;;;;;;;5091812;28;20028;-71
2023/10/13 03:25:13;;;;;;;53.70;19.63;;;;;;;;;;5097527;28;20028;-72
2023/10/13 03:30:17;;;;;;;50.85;20.20;;;;;;;;;;5080728;28;20033;-73
2023/10/13 03:32:47;;;;;;;50.15;19.23;;;;;;;;;;5092516;28;20036;-75
2023/10/13 03:35:16;;;;;;;51.83;21.27;;;;;;;;;;5085881;28;20032;-72
2023/10/13 03:37:42;;;;;;;43.92;18.83;;;;;;;;;;5088621;28;20060;-72
2023/10/13 03:43:04;;;;;;;37.70;18.35;;;;;;;;;;5088615;28;20039;-73
2023/10/13 03:45:36;;;;;;;36.92;17.25;;;;;;;;;;5089621;28;20039;-73
2023/10/13 03:48:08;;;;;;;50.15;19.38;;;;;;;;;;5087919;28;20016;-74
2023/10/13 03:50:36;;;;;;;46.40;18.73;;;;;;;;;;5091038;28;20028;-73
2023/10/13 03:53:02;;;;;;;43.17;17.60;;;;;;;;;;5092571;28;20472;-72
2023/10/13 03:55:34;;;;;;;44.67;20.92;;;;;;;;;;5087768;28;20069;-75
2023/10/13 03:58:00;;;;;;;35.67;18.70;;;;;;;;;;5088962;28;20016;-75
2023/10/13 04:00:27;;;;;;;38.22;18.88;;;;;;;;;;5095493;28;20107;-71
2023/10/13 04:03:17;;;;;;;35.33;17.80;;;;;;;;;;5100446;28;20039;-71
2023/10/13 04:05:42;;;;;;;44.78;19.30;;;;;;;;;;5109769;28;20031;-70
2023/10/13 04:19:08;;;;;;;35.05;17.23;;;;;;;;;;5088039;28;20024;-71
2023/10/13 04:21:41;;;;;;;;;;;;;;;;;;5112724;28;20052;-71
2023/10/13 04:27:18;;;;;;;31.05;17.00;;;;;;;;;;5112524;28;20630;-72
2023/10/13 04:32:28;;;;;;;38.47;17.10;;;;;;;;;;5112228;28;20069;-74
2023/10/13 04:37:50;;;;;;;37.30;18.10;;;;;;;;;;5098287;28;20020;-74
2023/10/13 04:40:18;;;;;;;30.88;16.98;;;;;;;;;;5091882;28;20026;-75
2023/10/13 04:42:53;;;;;;;36.03;18.40;;;;;;;;;;5096905;28;20087;-77
2023/10/13 04:50:50;;;;;;;37.63;19.45;;;;;;;;;;5094124;28;20055;-73
2023/10/13 04:53:59;;;;;;;41.80;20.05;;;;;;;;;;5092833;28;20024;-71
2023/10/13 05:46:35;;;;;;;90.43;46.58;;;;;;;;;;5096925;28;20089;-73
2023/10/13 06:29:53;;;;;;;69.93;41.35;;;;;;;;;;5114231;28;20120;-73
2023/10/13 06:32:19;;;;;;;75.50;42.88;;;;;;;;;;5114007;28;20043;-72
2023/10/13 06:34:45;;;;;;;74.18;43.70;;;;;;;;;;5114062;28;20097;-71
2023/10/13 06:37:25;;;;;;;64.05;40.67;;;;;;;;;;5114094;28;20111;-72
2023/10/13 06:39:52;;;;;;;74.57;44.17;;;;;;;;;;5113903;28;20130;-71
2023/10/13 06:42:19;;;;;;;67.65;42.30;;;;;;;;;;5113834;28;20065;-71
2023/10/13 06:44:46;;;;;;;75.75;43.65;;;;;;;;;;5114463;28;20051;-70
2023/10/13 06:47:13;;;;;;;77.45;45.83;;;;;;;;;;5113835;28;20034;-70
2023/10/13 06:49:45;;;;;;;68.57;42.40;;;;;;;;;;5113601;28;20085;-72
2023/10/13 06:52:11;;;;;;;71.47;42.97;;;;;;;;;;5113509;28;20024;-72
2023/10/13 06:54:39;;;;;;;66.97;41.88;;;;;;;;;;5114070;28;20111;-71
2023/10/13 06:57:09;;;;;;;71.82;43.45;;;;;;;;;;5113683;28;20028;-73
2023/10/13 06:59:36;;;;;;;70.25;42.72;;;;;;;;;;5113183;28;20375;-74
2023/10/13 07:02:06;;;;;;;65.70;41.20;;;;;;;;;;5112958;28;20016;-72
2023/10/13 07:04:33;;;;;;;68.30;43.20;;;;;;;;;;5112981;28;20096;-74
2023/10/13 07:07:00;;;;;;;79.82;46.50;;;;;;;;;;5113131;28;20095;-73
2023/10/13 07:12:16;;;;;;;67.43;42.05;;;;;;;;;;5114816;28;20123;-74
2023/10/13 07:14:51;;;;;;;74.97;45.05;;;;;;;;;;5113119;28;20019;-73
2023/10/13 07:17:23;;;;;;;66.30;43.42;;;;;;;;;;5114462;28;20355;-72
2023/10/13 07:19:53;;;;;;;72.57;43.78;;;;;;;;;;5113838;28;20152;-75
2023/10/13 07:22:19;;;;;;;70.10;43.75;;;;;;;;;;5116924;28;20027;-71
2023/10/13 07:24:48;;;;;;;74.07;44.00;;;;;;;;;;5115616;28;20501;-71
2023/10/13 07:27:22;;;;;;;68.32;41.83;;;;;;;;;;5113420;28;20074;-71
2023/10/13 07:29:55;;;;;;;65.47;39.75;;;;;;;;;;5112715;28;20026;-71
2023/10/13 07:32:24;;;;;;;66.53;42.13;;;;;;;;;;5113331;28;20039;-71
2023/10/13 07:34:50;;;;;;;62.75;41.88;;;;;;;;;;5114219;28;20019;-74
2023/10/13 07:37:18;;;;;;;64.78;40.97;;;;;;;;;;5114127;28;20413;-72
2023/10/13 07:39:44;;;;;;;56.70;38.10;;;;;;;;;;5117518;28;20077;-71
2023/10/13 07:42:19;;;;;;;57.33;39.17;;;;;;;;;;5096652;28;20032;-71
2023/10/13 07:44:46;;;;;;;51.03;35.78;;;;;;;;;;5092404;28;20107;-72
2023/10/13 07:47:14;;;;;;;56.53;36.90;;;;;;;;;;5092131;28;20035;-72
2023/10/13 07:49:41;;;;;;;67.70;42.72;;;;;;;;;;5092879;28;20028;-72
2023/10/13 07:54:56;;;;;;;48.78;33.38;;;;;;;;;;5093087;28;20024;-71
2023/10/13 07:57:31;;;;;;;44.03;31.88;;;;;;;;;;5091589;28;20050;-70
2023/10/13 08:00:10;;;;;;;39.45;30.02;;;;;;;;;;5091198;28;20104;-72
2023/10/13 08:02:49;;;;;;;43.65;29.17;;;;;;;;;;5091213;28;20425;-73
2023/10/13 08:05:39;;;;;;;36.80;27.67;;;;;;;;;;5091962;28;20454;-72
2023/10/13 08:08:14;;;;;;;40.40;28.83;;;;;;;;;;5094815;28;20111;-71
2023/10/13 08:10:41;;;;;;;35.53;24.40;;;;;;;;;;5096580;28;20028;-73
2023/10/13 08:13:12;;;;;;;30.92;22.08;;;;;;;;;;5092314;28;20023;-71
2023/10/13 08:15:46;;;;;;;31.75;21.10;;;;;;;;;;5091750;28;20020;-71
2023/10/13 08:18:19;;;;;;;;;;;;;;;;;;5092638;28;20035;-73
2023/10/13 08:20:45;;;;;;;24.90;19.35;;;;;;;;;;5092039;28;19943;-71
2023/10/13 08:23:14;;;;;;;26.85;17.75;;;;;;;;;;5091480;28;20059;-73
2023/10/13 08:31:14;;;;;;;21.67;15.88;;;;;;;;;;5096460;28;20028;-70
2023/10/13 08:33:46;;;;;;;20.95;14.60;;;;;;;;;;5095752;28;20564;-71
2023/10/13 08:36:46;;;;;;;21.05;16.05;;;;;;;;;;5094527;28;20110;-72
2023/10/13 08:39:57;;;;;;;21.27;16.13;;;;;;;;;;5091863;28;20487;-70
2023/10/13 08:42:11;;;;;;;23.63;16.05;;;;;;;;;;5094877;28;20043;-73
2023/10/13 08:44:38;;;;;;;21.40;14.40;;;;;;;;;;5077708;28;20028;-74
2023/10/13 08:47:04;;;;;;;19.92;14.77;;;;;;;;;;5095589;28;20024;-72
2023/10/13 08:49:32;;;;;;;19.90;12.27;;;;;;;;;;5095326;28;20140;-74
2023/10/13 08:52:05;;;;;;;15.60;12.38;;;;;;;;;;5095304;28;20031;-71
2023/10/13 08:54:33;;;;;;;18.08;12.20;;;;;;;;;;5095707;28;20088;-72
2023/10/13 08:57:06;;;;;;;18.48;12.48;;;;;;;;;;5095606;28;20031;-72
2023/10/13 08:59:38;;;;;;;19.25;13.60;;;;;;;;;;5095211;28;20024;-71
2023/10/13 09:02:19;;;;;;;15.15;11.57;;;;;;;;;;5094983;28;20024;-74
2023/10/13 09:04:45;;;;;;;15.77;11.93;;;;;;;;;;5095869;28;20024;-76
2023/10/13 09:07:21;;;;;;;15.35;12.20;;;;;;;;;;5095486;28;20028;-75
2023/10/13 09:12:25;;;;;;;18.85;11.57;;;;;;;;;;5094871;28;20463;-74
2023/10/13 09:14:57;;;;;;;;;;;;;;;;;;5096397;28;20093;-73
2023/10/13 09:20:11;;;;;;;17.52;11.98;;;;;;;;;;5095349;28;20491;-72
2023/10/13 09:22:37;;;;;;;22.27;11.52;;;;;;;;;;5095741;28;20074;-71
2023/10/13 09:25:13;;;;;;;19.95;11.82;;;;;;;;;;5095401;28;20426;-73
2023/10/13 09:27:39;;;;;;;15.27;11.10;;;;;;;;;;5094903;28;20040;-72
2023/10/13 09:30:18;;;;;;;16.92;10.65;;;;;;;;;;5094250;28;20074;-72
2023/10/13 09:32:48;;;;;;;20.25;11.43;;;;;;;;;;5094673;28;20513;-72
2023/10/13 09:35:27;;;;;;;16.65;10.65;;;;;;;;;;5096483;28;20032;-71
2023/10/13 09:37:56;;;;;;;18.30;10.05;;;;;;;;;;5096251;28;20016;-74
2023/10/13 09:40:27;;;;;;;17.30;10.07;;;;;;;;;;5096742;28;20042;-71
2023/10/13 09:42:56;;;;;;;17.83;9.90;;;;;;;;;;5094559;28;20440;-71
2023/10/13 09:45:28;;;;;;;21.67;9.75;;;;;;;;;;5094471;28;20016;-72
2023/10/13 09:47:57;;;;;;;14.10;8.52;;;;;;;;;;5094265;28;20035;-70
2023/10/13 09:50:24;;;;;;;19.65;8.82;;;;;;;;;;5096622;28;20020;-72
2023/10/13 09:52:53;;;;;;;18.10;8.43;;;;;;;;;;5105139;28;20035;-71
2023/10/13 09:55:31;;;;;;;25.52;7.95;;;;;;;;;;5093004;28;20063;-71
2023/10/13 09:58:11;;;;;;;19.40;7.85;;;;;;;;;;5094726;28;20020;-72
2023/10/13 10:03:14;;;;;;;18.90;7.32;;;;;;;;;;5094403;28;20028;-73
2023/10/13 10:05:41;;;;;;;19.45;7.10;;;;;;;;;;5094420;28;20027;-72
2023/10/13 10:08:10;;;;;;;18.13;7.75;;;;;;;;;;5094031;28;20054;-73
2023/10/13 10:11:00;;;;;;;59.67;30.90;;;;;;;;;;5094531;28;20028;-71
2023/10/13 10:13:34;;;;;;;19.40;8.32;;;;;;;;;;5091955;28;20020;-73
2023/10/13 10:16:03;;;;;;;18.27;7.27;;;;;;;;;;5080449;28;20016;-72
2023/10/13 10:18:29;;;;;;;17.17;7.15;;;;;;;;;;5080207;28;20016;-74
2023/10/13 10:21:09;;;;;;;20.30;7.97;;;;;;;;;;5083475;28;20024;-71
2023/10/13 10:23:38;;;;;;;21.30;6.88;;;;;;;;;;5080782;28;20020;-72
2023/10/13 10:26:11;;;;;;;20.55;7.28;;;;;;;;;;5081672;28;20107;-71
2023/10/13 10:28:39;;;;;;;22.00;6.45;;;;;;;;;;5081784;28;20040;-73
2023/10/13 10:31:09;;;;;;;22.25;7.40;;;;;;;;;;5083722;28;20032;-72
2023/10/13 10:33:35;;;;;;;23.05;6.75;;;;;;;;;;5083480;28;20124;-72
2023/10/13 10:36:01;;;;;;;19.75;7.03;;;;;;;;;;5080814;28;20507;-73
2023/10/13 10:40:58;;;;;;;22.15;7.70;;;;;;;;;;5077722;28;20111;-72
2023/10/13 10:43:41;;;;;;;16.40;7.07;;;;;;;;;;5084704;28;20035;-72
2023/10/13 10:46:10;;;;;;;26.52;8.02;;;;;;;;;;5080239;28;20032;-73
2023/10/13 10:48:38;;;;;;;17.52;6.88;;;;;;;;;;5082512;28;20027;-71
2023/10/13 10:51:13;;;;;;;19.15;6.85;;;;;;;;;;5087773;28;20049;-72
2023/10/13 10:53:46;;;;;;;24.50;8.05;;;;;;;;;;5058321;28;20043;-73
2023/10/13 10:59:00;;;;;;;18.40;7.55;;;;;;;;;;5074046;28;20059;-73
2023/10/13 11:01:33;;;;;;;18.58;7.55;;;;;;;;;;5073569;28;20032;-71
2023/10/13 11:04:14;;;;;;;25.77;8.67;;;;;;;;;;5073415;28;20044;-72
2023/10/13 11:06:45;;;;;;;19.75;6.95;;;;;;;;;;5075635;28;20109;-72
2023/10/13 11:09:18;;;;;;;18.23;7.10;;;;;;;;;;5084086;28;20087;-72
2023/10/13 11:11:52;;;;;;;18.38;7.63;;;;;;;;;;5078044;28;20028;-73
2023/10/13 11:14:24;;;;;;;24.83;8.33;;;;;;;;;;5084130;28;20047;-73
2023/10/13 11:16:53;;;;;;;21.05;7.40;;;;;;;;;;5084553;28;20018;-73
2023/10/13 11:19:20;;;;;;;27.92;7.32;;;;;;;;;;5083027;28;20406;-72
2023/10/13 11:21:50;;;;;;;22.13;7.47;;;;;;;;;;5080346;28;20012;-73
2023/10/13 11:24:17;;;;;;;27.15;8.15;;;;;;;;;;5080333;28;20025;-72
2023/10/13 11:26:49;;;;;;;22.45;7.82;;;;;;;;;;5080987;28;20017;-71
2023/10/13 11:29:31;;;;;;;18.25;7.40;;;;;;;;;;5075198;28;20392;-72
2023/10/13 11:31:58;;;;;;;20.98;7.60;;;;;;;;;;5076794;28;20531;-72
2023/10/13 11:34:25;;;;;;;18.92;7.60;;;;;;;;;;5084383;28;20035;-71
2023/10/13 11:36:52;;;;;;;20.10;7.60;;;;;;;;;;5074588;28;20021;-71
2023/10/13 11:39:23;;;;;;;15.05;6.85;;;;;;;;;;5072701;28;20020;-71
2023/10/13 11:41:56;;;;;;;16.45;6.82;;;;;;;;;;5089408;28;20020;-73
2023/10/13 11:49:17;;;;;;;21.35;7.03;;;;;;;;;;5091786;28;20035;-73
2023/10/13 11:51:47;;;;;;;19.08;7.20;;;;;;;;;;5091502;28;20395;-71
2023/10/13 11:54:17;;;;;;;24.60;7.30;;;;;;;;;;5084463;28;20013;-73
2023/10/13 11:56:43;;;;;;;25.52;8.05;;;;;;;;;;5087140;28;20017;-72
2023/10/13 11:59:20;;;;;;;24.50;6.93;;;;;;;;;;5091841;28;20022;-71
2023/10/13 12:12:17;;;;;;;20.75;6.32;;;;;;;;;;5092909;28;20036;-75
2023/10/13 12:14:52;;;;;;;23.45;6.63;;;;;;;;;;5074811;28;20581;-72
2023/10/13 12:17:24;;;;;;;23.83;5.88;;;;;;;;;;5092849;28;20034;-73
2023/10/13 12:19:52;;;;;;;18.63;6.15;;;;;;;;;;5095154;28;20012;-72
2023/10/13 12:22:28;;;;;;;21.42;6.13;;;;;;;;;;5097046;28;20084;-72
2023/10/13 12:24:54;;;;;;;23.50;6.45;;;;;;;;;;5095597;28;20031;-73
2023/10/13 12:27:20;;;;;;;24.38;7.03;;;;;;;;;;5093957;28;20035;-72
2023/10/13 12:29:53;;;;;;;27.90;6.80;;;;;;;;;;5098050;28;20024;-73
2023/10/13 12:32:25;;;;;;;27.30;6.72;;;;;;;;;;5094195;28;20028;-70
2023/10/13 12:34:57;;;;;;;21.65;6.00;;;;;;;;;;5092459;28;20028;-73
2023/10/13 12:53:54;;;;;;;20.23;6.20;;;;;;;;;;5084325;28;20032;-73
2023/10/13 12:56:25;;;;;;;29.27;6.20;;;;;;;;;;5088348;28;20022;-73
2023/10/13 12:58:51;;;;;;;26.65;7.07;;;;;;;;;;5091176;28;20028;-72
2023/10/13 13:01:20;;;;;;;25.83;5.97;;;;;;;;;;5091899;28;20058;-74
2023/10/13 13:03:46;;;;;;;22.52;6.30;;;;;;;;;;5086052;28;20054;-72
2023/10/13 13:06:17;;;;;;;16.58;5.80;;;;;;;;;;5099016;28;20430;-74
2023/10/13 13:08:44;;;;;;;26.02;6.80;;;;;;;;;;5096490;28;20016;-72
2023/10/13 13:11:10;;;;;;;24.92;6.70;;;;;;;;;;5090855;28;20020;-71
2023/10/13 13:13:36;;;;;;;22.35;6.63;;;;;;;;;;5089726;28;20016;-71
2023/10/13 13:16:03;;;;;;;30.25;7.55;;;;;;;;;;5094857;28;20144;-72
2023/10/13 13:18:29;;;;;;;26.35;7.05;;;;;;;;;;5096679;28;20023;-71
2023/10/13 13:20:56;;;;;;;24.83;7.38;;;;;;;;;;5090652;28;20028;-73
2023/10/13 13:23:25;;;;;;;22.98;5.97;;;;;;;;;;5103898;28;20031;-72
2023/10/13 13:25:52;;;;;;;34.70;10.52;;;;;;;;;;5098287;28;20105;-72
2023/10/13 13:28:18;;;;;;;52.03;16.48;;;;;;;;;;5082966;28;20024;-72
2023/10/13 13:30:46;;;;;;;18.67;6.85;;;;;;;;;;5091621;28;20386;-73
2023/10/13 13:33:12;;;;;;;26.33;8.80;;;;;;;;;;5094356;28;20031;-72
2023/10/13 13:35:44;;;;;;;35.90;7.50;;;;;;;;;;5089495;28;20017;-72
2023/10/13 13:38:13;;;;;;;19.48;7.00;;;;;;;;;;5081296;28;20024;-71
2023/10/13 13:40:39;;;;;;;23.40;6.63;;;;;;;;;;5093732;28;20024;-75
2023/10/13 13:43:06;;;;;;;28.17;6.60;;;;;;;;;;5096005;28;20040;-71
2023/10/13 13:45:34;;;;;;;23.90;6.15;;;;;;;;;;5091914;28;20029;-71
2023/10/13 13:48:07;;;;;;;19.35;6.75;;;;;;;;;;5092820;28;20036;-73
2023/10/13 13:50:38;;;;;;;29.45;6.75;;;;;;;;;;5094089;28;20032;-72
2023/10/13 13:53:09;;;;;;;30.40;6.97;;;;;;;;;;5100946;28;20089;-72
2023/10/13 13:55:35;;;;;;;26.02;7.75;;;;;;;;;;5089138;28;20066;-72
2023/10/13 13:58:04;;;;;;;21.55;6.90;;;;;;;;;;5098585;28;20089;-71
2023/10/13 14:00:48;;;;;;;29.20;7.35;;;;;;;;;;5085093;28;20461;-72
2023/10/13 14:03:35;;;;;;;29.90;8.45;;;;;;;;;;5112732;28;20099;-72
2023/10/13 14:06:01;;;;;;;33.38;6.72;;;;;;;;;;5114142;28;20035;-74
2023/10/13 14:08:27;;;;;;;28.38;7.28;;;;;;;;;;5114195;28;20031;-72
2023/10/13 14:13:48;;;;;;;33.38;7.97;;;;;;;;;;5109388;28;20021;-72
2023/10/13 14:16:17;;;;;;;23.50;7.18;;;;;;;;;;5093226;28;20024;-75
2023/10/13 14:18:47;;;;;;;20.80;7.15;;;;;;;;;;5093346;28;20024;-73
2023/10/13 14:21:19;;;;;;;28.15;7.57;;;;;;;;;;5093248;28;20032;-73
2023/10/13 14:23:45;;;;;;;25.38;7.10;;;;;;;;;;5094773;28;20020;-72
2023/10/13 14:26:15;;;;;;;32.80;7.15;;;;;;;;;;5094082;28;20085;-71
2023/10/13 14:31:27;;;;;;;28.08;7.03;;;;;;;;;;5093638;28;20455;-73
2023/10/13 14:33:53;;;;;;;24.17;7.32;;;;;;;;;;5093464;28;20032;-72
2023/10/13 14:36:22;;;;;;;24.00;7.97;;;;;;;;;;5093596;28;20539;-73
2023/10/13 14:38:51;;;;;;;26.73;7.72;;;;;;;;;;5075789;28;20435;-72
2023/10/13 14:41:18;;;;;;;27.10;7.72;;;;;;;;;;5093699;28;20089;-72
2023/10/13 14:43:47;;;;;;;25.63;7.93;;;;;;;;;;5093490;28;20046;-72
2023/10/13 14:46:14;;;;;;;31.15;7.28;;;;;;;;;;5092576;28;20364;-72
2023/10/13 14:48:40;;;;;;;26.30;7.57;;;;;;;;;;5094394;28;20103;-71
2023/10/13 14:51:12;;;;;;;33.95;8.00;;;;;;;;;;5096607;28;20364;-72
2023/10/13 14:53:41;;;;;;;33.70;7.95;;;;;;;;;;5098142;28;20068;-71
2023/10/13 14:56:08;;;;;;;24.15;7.40;;;;;;;;;;5076693;28;20024;-72
2023/10/13 14:58:34;;;;;;;24.33;7.82;;;;;;;;;;5093322;28;20475;-72
2023/10/13 15:01:00;;;;;;;33.60;8.07;;;;;;;;;;5093159;28;20024;-71
2023/10/13 15:03:28;;;;;;;27.92;7.72;;;;;;;;;;5093726;28;20028;-72
2023/10/13 15:05:55;;;;;;;26.17;7.72;;;;;;;;;;5093255;28;20062;-72
2023/10/13 15:08:21;;;;;;;29.15;9.15;;;;;;;;;;5092565;28;20024;-72
2023/10/13 15:10:47;;;;;;;32.30;7.72;;;;;;;;;;5092504;28;20111;-71
2023/10/13 15:13:13;;;;;;;23.42;8.10;;;;;;;;;;5092600;28;20115;-71
2023/10/13 15:15:39;;;;;;;25.17;7.20;;;;;;;;;;5102767;28;20020;-73
2023/10/13 15:18:05;;;;;;;25.80;7.30;;;;;;;;;;5113603;28;20042;-73
2023/10/13 15:20:31;;;;;;;25.23;7.97;;;;;;;;;;5113983;28;20352;-73
2023/10/13 15:22:59;;;;;;;28.92;8.82;;;;;;;;;;5097874;28;20031;-73
2023/10/13 15:25:31;;;;;;;27.13;7.95;;;;;;;;;;5113337;28;20024;-72
2023/10/13 15:28:02;;;;;;;22.33;7.95;;;;;;;;;;5113402;28;20020;-72
2023/10/13 15:30:43;;;;;;;24.90;8.00;;;;;;;;;;5112345;28;20031;-72
2023/10/13 15:33:09;;;;;;;31.27;8.00;;;;;;;;;;5113215;28;20035;-71
2023/10/13 15:35:38;;;;;;;39.05;7.68;;;;;;;;;;5094444;28;20454;-72
2023/10/13 15:38:06;;;;;;;32.50;8.10;;;;;;;;;;5108074;28;20039;-71
2023/10/13 15:40:32;;;;;;;29.67;8.00;;;;;;;;;;5092078;28;20018;-72
2023/10/13 15:42:59;;;;;;;34.92;8.52;;;;;;;;;;5092110;28;20050;-72
2023/10/13 15:45:32;;;;;;;34.15;8.40;;;;;;;;;;5092377;28;20360;-71
2023/10/13 15:47:58;;;;;;;23.92;8.95;;;;;;;;;;5091972;28;20027;-72
2023/10/13 15:50:25;;;;;;;38.85;8.15;;;;;;;;;;5091763;28;20023;-73
2023/10/13 15:52:51;;;;;;;31.70;7.65;;;;;;;;;;5091649;28;20601;-73
2023/10/13 15:55:18;;;;;;;28.67;8.55;;;;;;;;;;5079126;28;20557;-72
2023/10/13 15:57:44;;;;;;;39.60;8.13;;;;;;;;;;5095529;28;20132;-72
2023/10/13 16:00:23;;;;;;;32.03;8.25;;;;;;;;;;5094846;28;20391;-72
2023/10/13 16:02:58;;;;;;;28.67;8.55;;;;;;;;;;5091870;28;20024;-73
2023/10/13 16:05:29;;;;;;;25.67;7.50;;;;;;;;;;5085766;28;20055;-72
2023/10/13 16:07:55;;;;;;;27.30;7.40;;;;;;;;;;5085613;28;20032;-71
2023/10/13 16:10:24;;;;;;;28.35;8.43;;;;;;;;;;5098114;28;20035;-72
2023/10/13 16:12:50;;;;;;;28.80;7.90;;;;;;;;;;5091395;28;20027;-73
2023/10/13 16:15:16;;;;;;;31.75;7.93;;;;;;;;;;5091825;28;20480;-73
2023/10/13 16:17:44;;;;;;;26.50;7.45;;;;;;;;;;5084367;28;20016;-76
2023/10/13 16:20:16;;;;;;;34.75;8.27;;;;;;;;;;5093567;28;20317;-74
2023/10/13 16:22:43;;;;;;;25.20;8.43;;;;;;;;;;5092426;28;20400;-75
2023/10/13 16:25:11;;;;;;;23.52;7.90;;;;;;;;;;5091215;28;20067;-72
2023/10/13 16:27:39;;;;;;;32.72;8.40;;;;;;;;;;5081323;28;20024;-73
2023/10/13 16:30:09;;;;;;;29.23;8.40;;;;;;;;;;5094901;28;20053;-74
2023/10/13 16:32:35;;;;;;;24.45;7.60;;;;;;;;;;5087301;28;20111;-73
2023/10/13 16:35:01;;;;;;;33.63;7.13;;;;;;;;;;5088062;28;20486;-72
2023/10/13 16:37:30;;;;;;;27.38;7.35;;;;;;;;;;5094189;28;20066;-75
2023/10/13 16:40:04;;;;;;;27.80;7.50;;;;;;;;;;5077569;28;20034;-72
2023/10/13 16:42:33;;;;;;;22.98;7.03;;;;;;;;;;5098271;28;20039;-73
2023/10/13 16:45:14;;;;;;;24.33;6.28;;;;;;;;;;5094778;28;20103;-73
2023/10/13 16:47:42;;;;;;;21.58;6.90;;;;;;;;;;5103352;28;20055;-75
2023/10/13 16:50:08;;;;;;;36.92;6.95;;;;;;;;;;5097648;28;20052;-73
2023/10/13 16:52:34;;;;;;;20.20;6.85;;;;;;;;;;5094131;28;20090;-72
2023/10/13 16:55:00;;;;;;;34.03;6.95;;;;;;;;;;5086519;28;20514;-72
2023/10/13 16:57:26;;;;;;;24.35;7.40;;;;;;;;;;5096191;28;20024;-72
2023/10/13 16:59:52;;;;;;;28.55;9.15;;;;;;;;;;5099524;28;20028;-73
2023/10/13 17:02:18;;;;;;;20.17;7.28;;;;;;;;;;5086032;28;20132;-72
2023/10/13 17:04:44;;;;;;;27.55;8.10;;;;;;;;;;5097983;28;20118;-72
2023/10/13 17:07:13;;;;;;;29.20;7.53;;;;;;;;;;5096889;28;20498;-72
2023/10/13 17:09:39;;;;;;;25.67;7.68;;;;;;;;;;5085519;28;20069;-71
2023/10/13 17:12:06;;;;;;;24.88;8.13;;;;;;;;;;5087215;28;20119;-72
2023/10/13 17:14:32;;;;;;;21.02;6.55;;;;;;;;;;5093833;28;20567;-73
2023/10/13 17:16:58;;;;;;;24.35;6.93;;;;;;;;;;5097470;28;20043;-71
2023/10/13 17:19:24;;;;;;;29.85;8.07;;;;;;;;;;5085161;28;20411;-72
2023/10/13 17:21:50;;;;;;;26.13;6.85;;;;;;;;;;5104523;28;20027;-73
2023/10/13 17:24:17;;;;;;;20.02;7.03;;;;;;;;;;5099477;28;20038;-72
2023/10/13 17:26:43;;;;;;;28.08;7.20;;;;;;;;;;5094071;28;20390;-72
2023/10/13 17:29:09;;;;;;;23.38;6.35;;;;;;;;;;5086030;28;20103;-72
2023/10/13 17:31:36;;;;;;;23.13;6.65;;;;;;;;;;5094122;28;20019;-73
2023/10/13 17:34:02;;;;;;;19.05;5.88;;;;;;;;;;5097199;28;20141;-76
2023/10/13 17:36:29;;;;;;;32.78;9.80;;;;;;;;;;5092324;28;20020;-72
2023/10/13 17:38:55;;;;;;;27.75;7.50;;;;;;;;;;5092638;28;20019;-72
2023/10/13 17:41:23;;;;;;;24.08;6.82;;;;;;;;;;5093901;28;20464;-72
2023/10/13 17:43:49;;;;;;;24.05;6.30;;;;;;;;;;5097090;28;20115;-72
2023/10/13 17:46:15;;;;;;;21.92;6.45;;;;;;;;;;5085226;28;20543;-72
2023/10/13 17:48:45;;;;;;;19.88;5.88;;;;;;;;;;5095924;28;20522;-71
2023/10/13 17:51:13;;;;;;;22.63;7.75;;;;;;;;;;5094914;28;20052;-72
2023/10/13 17:53:39;;;;;;;22.05;5.60;;;;;;;;;;5092334;28;20511;-73